Terminal Aerodrome Forecast
Issued by NWS Wilmington, OH

Current Version | Previous Version | Text Only | Print | Product List | Glossary Off
Versions: 1 2 3 4 5 6 7 8 9 10 11 12 13 14 15 16 17 18 19 20 21 22 23 24 25

000
FTUS41 KILN 202339
TAFCVG
TAF
KCVG 202339Z 2100/2206 24006KT P6SM FEW070 FEW300
     FM210900 21004KT P6SM BKN150
     FM211500 25008KT P6SM SCT040
     FM220100 24004KT P6SM SCT250=

USA.gov is the U.S. government's official web portal to all federal, state and local government web resources and services.